sensor_id;sensor_type;location;lat;lon;timestamp;P1;durP1;ratioP1;P2;durP2;ratioP2
23290;SDS011;11814;44.686;10.842;2023-05-10T00:01:23;12.27;;;7.97;;
23290;SDS011;11814;44.686;10.842;2023-05-10T00:03:49;16.05;;;7.95;;
23290;SDS011;11814;44.686;10.842;2023-05-10T00:06:15;13.80;;;8.20;;
23290;SDS011;11814;44.686;10.842;2023-05-10T00:08:40;14.20;;;7.65;;
23290;SDS011;11814;44.686;10.842;2023-05-10T00:11:06;11.80;;;7.40;;
23290;SDS011;11814;44.686;10.842;2023-05-10T00:13:32;11.40;;;7.25;;
23290;SDS011;11814;44.686;10.842;2023-05-10T00:15:57;9.68;;;7.22;;
23290;SDS011;11814;44.686;10.842;2023-05-10T00:18:23;9.82;;;7.55;;
23290;SDS011;11814;44.686;10.842;2023-05-10T00:20:49;13.20;;;8.15;;
23290;SDS011;11814;44.686;10.842;2023-05-10T00:23:15;10.52;;;8.00;;
23290;SDS011;11814;44.686;10.842;2023-05-10T00:25:40;13.30;;;8.18;;
23290;SDS011;11814;44.686;10.842;2023-05-10T00:28:06;10.68;;;8.10;;
23290;SDS011;11814;44.686;10.842;2023-05-10T00:30:32;10.18;;;8.50;;
23290;SDS011;11814;44.686;10.842;2023-05-10T00:32:57;14.20;;;9.63;;
23290;SDS011;11814;44.686;10.842;2023-05-10T00:35:23;13.57;;;9.85;;
23290;SDS011;11814;44.686;10.842;2023-05-10T00:37:49;15.45;;;10.45;;
23290;SDS011;11814;44.686;10.842;2023-05-10T00:40:15;15.60;;;10.57;;
23290;SDS011;11814;44.686;10.842;2023-05-10T00:42:40;16.52;;;10.45;;
23290;SDS011;11814;44.686;10.842;2023-05-10T00:45:06;16.58;;;10.00;;
23290;SDS011;11814;44.686;10.842;2023-05-10T00:47:33;15.23;;;11.10;;
23290;SDS011;11814;44.686;10.842;2023-05-10T00:49:59;14.82;;;11.02;;
23290;SDS011;11814;44.686;10.842;2023-05-10T00:52:28;15.20;;;11.02;;
23290;SDS011;11814;44.686;10.842;2023-05-10T00:54:55;13.45;;;11.45;;
23290;SDS011;11814;44.686;10.842;2023-05-10T00:57:21;16.27;;;12.27;;
23290;SDS011;11814;44.686;10.842;2023-05-10T00:59:48;12.05;;;10.68;;
23290;SDS011;11814;44.686;10.842;2023-05-10T01:02:14;16.33;;;11.93;;
23290;SDS011;11814;44.686;10.842;2023-05-10T01:04:40;18.38;;;11.50;;
23290;SDS011;11814;44.686;10.842;2023-05-10T01:07:06;16.80;;;11.95;;
23290;SDS011;11814;44.686;10.842;2023-05-10T01:09:32;14.30;;;11.30;;
23290;SDS011;11814;44.686;10.842;2023-05-10T01:11:58;15.98;;;11.75;;
23290;SDS011;11814;44.686;10.842;2023-05-10T01:14:26;13.98;;;12.00;;
23290;SDS011;11814;44.686;10.842;2023-05-10T01:16:53;16.58;;;12.13;;
23290;SDS011;11814;44.686;10.842;2023-05-10T01:19:22;17.10;;;12.75;;
23290;SDS011;11814;44.686;10.842;2023-05-10T01:21:53;14.93;;;12.57;;
23290;SDS011;11814;44.686;10.842;2023-05-10T01:33:18;16.10;;;11.32;;
23290;SDS011;11814;44.686;10.842;2023-05-10T01:35:59;13.77;;;11.00;;
23290;SDS011;11814;44.686;10.842;2023-05-10T01:38:50;12.18;;;10.63;;
23290;SDS011;11814;44.686;10.842;2023-05-10T01:41:34;13.38;;;10.75;;
23290;SDS011;11814;44.686;10.842;2023-05-10T01:44:18;14.07;;;10.10;;
23290;SDS011;11814;44.686;10.842;2023-05-10T01:46:49;12.93;;;10.57;;
23290;SDS011;11814;44.686;10.842;2023-05-10T01:49:54;11.88;;;9.35;;
23290;SDS011;11814;44.686;10.842;2023-05-10T01:52:30;12.00;;;9.88;;
23290;SDS011;11814;44.686;10.842;2023-05-10T01:55:02;13.57;;;9.43;;
23290;SDS011;11814;44.686;10.842;2023-05-10T01:57:33;12.20;;;9.57;;
23290;SDS011;11814;44.686;10.842;2023-05-10T02:00:01;11.10;;;9.43;;
23290;SDS011;11814;44.686;10.842;2023-05-10T02:02:36;16.20;;;10.98;;
23290;SDS011;11814;44.686;10.842;2023-05-10T02:05:03;14.32;;;9.63;;
23290;SDS011;11814;44.686;10.842;2023-05-10T02:07:32;13.82;;;9.25;;
23290;SDS011;11814;44.686;10.842;2023-05-10T02:10:01;14.65;;;10.27;;
23290;SDS011;11814;44.686;10.842;2023-05-10T02:12:29;12.70;;;9.80;;
23290;SDS011;11814;44.686;10.842;2023-05-10T02:15:02;12.70;;;9.95;;
23290;SDS011;11814;44.686;10.842;2023-05-10T02:17:31;16.33;;;10.68;;
23290;SDS011;11814;44.686;10.842;2023-05-10T02:19:58;12.50;;;10.27;;
23290;SDS011;11814;44.686;10.842;2023-05-10T02:22:26;13.88;;;9.77;;
23290;SDS011;11814;44.686;10.842;2023-05-10T02:24:54;12.32;;;9.23;;
23290;SDS011;11814;44.686;10.842;2023-05-10T02:27:23;13.80;;;9.70;;
23290;SDS011;11814;44.686;10.842;2023-05-10T02:29:49;12.18;;;8.73;;
23290;SDS011;11814;44.686;10.842;2023-05-10T02:32:16;16.10;;;9.27;;
23290;SDS011;11814;44.686;10.842;2023-05-10T02:34:43;14.38;;;10.20;;
23290;SDS011;11814;44.686;10.842;2023-05-10T02:37:12;12.60;;;9.82;;
23290;SDS011;11814;44.686;10.842;2023-05-10T02:39:39;13.90;;;9.20;;
23290;SDS011;11814;44.686;10.842;2023-05-10T02:42:10;11.15;;;8.95;;
23290;SDS011;11814;44.686;10.842;2023-05-10T02:44:40;10.90;;;8.88;;
23290;SDS011;11814;44.686;10.842;2023-05-10T02:47:07;12.95;;;9.45;;
23290;SDS011;11814;44.686;10.842;2023-05-10T02:49:33;15.15;;;10.98;;
23290;SDS011;11814;44.686;10.842;2023-05-10T02:52:00;15.57;;;9.93;;
23290;SDS011;11814;44.686;10.842;2023-05-10T02:54:30;12.48;;;9.50;;
23290;SDS011;11814;44.686;10.842;2023-05-10T02:57:00;12.75;;;9.60;;
23290;SDS011;11814;44.686;10.842;2023-05-10T02:59:29;11.13;;;9.18;;
23290;SDS011;11814;44.686;10.842;2023-05-10T03:01:55;12.65;;;9.10;;
23290;SDS011;11814;44.686;10.842;2023-05-10T03:04:21;16.13;;;9.63;;
23290;SDS011;11814;44.686;10.842;2023-05-10T03:06:47;12.70;;;9.52;;
23290;SDS011;11814;44.686;10.842;2023-05-10T03:09:13;15.07;;;10.02;;
23290;SDS011;11814;44.686;10.842;2023-05-10T03:20:03;12.48;;;10.52;;
23290;SDS011;11814;44.686;10.842;2023-05-10T03:22:36;13.40;;;10.05;;
23290;SDS011;11814;44.686;10.842;2023-05-10T03:25:06;13.10;;;9.75;;
23290;SDS011;11814;44.686;10.842;2023-05-10T03:27:33;16.15;;;10.02;;
23290;SDS011;11814;44.686;10.842;2023-05-10T03:30:01;13.80;;;10.38;;
23290;SDS011;11814;44.686;10.842;2023-05-10T03:32:28;11.45;;;8.70;;
23290;SDS011;11814;44.686;10.842;2023-05-10T03:34:56;10.50;;;8.43;;
23290;SDS011;11814;44.686;10.842;2023-05-10T03:37:22;11.35;;;8.77;;
23290;SDS011;11814;44.686;10.842;2023-05-10T03:39:48;10.27;;;8.10;;
23290;SDS011;11814;44.686;10.842;2023-05-10T03:42:14;8.77;;;7.05;;
23290;SDS011;11814;44.686;10.842;2023-05-10T03:44:39;8.70;;;7.28;;
23290;SDS011;11814;44.686;10.842;2023-05-10T03:47:05;9.75;;;7.70;;
23290;SDS011;11814;44.686;10.842;2023-05-10T03:49:31;8.68;;;7.75;;
23290;SDS011;11814;44.686;10.842;2023-05-10T03:51:57;11.07;;;9.00;;
23290;SDS011;11814;44.686;10.842;2023-05-10T03:54:23;8.63;;;7.70;;
23290;SDS011;11814;44.686;10.842;2023-05-10T03:56:48;11.85;;;8.10;;
23290;SDS011;11814;44.686;10.842;2023-05-10T03:59:14;9.75;;;7.90;;
23290;SDS011;11814;44.686;10.842;2023-05-10T04:01:40;11.32;;;7.55;;
23290;SDS011;11814;44.686;10.842;2023-05-10T04:04:05;9.70;;;8.57;;
23290;SDS011;11814;44.686;10.842;2023-05-10T04:06:31;9.80;;;8.15;;
23290;SDS011;11814;44.686;10.842;2023-05-10T04:08:57;12.98;;;8.20;;
23290;SDS011;11814;44.686;10.842;2023-05-10T04:11:24;8.23;;;7.30;;
23290;SDS011;11814;44.686;10.842;2023-05-10T04:13:50;15.23;;;8.27;;
23290;SDS011;11814;44.686;10.842;2023-05-10T04:16:16;11.13;;;8.40;;
23290;SDS011;11814;44.686;10.842;2023-05-10T04:18:42;12.88;;;9.30;;
23290;SDS011;11814;44.686;10.842;2023-05-10T04:21:14;13.60;;;8.40;;
23290;SDS011;11814;44.686;10.842;2023-05-10T04:23:40;10.98;;;8.55;;
23290;SDS011;11814;44.686;10.842;2023-05-10T04:26:06;12.43;;;8.52;;
23290;SDS011;11814;44.686;10.842;2023-05-10T04:28:32;10.25;;;7.97;;
23290;SDS011;11814;44.686;10.842;2023-05-10T04:31:04;10.35;;;8.57;;
23290;SDS011;11814;44.686;10.842;2023-05-10T04:33:31;12.00;;;7.78;;
23290;SDS011;11814;44.686;10.842;2023-05-10T04:35:57;10.43;;;7.70;;
23290;SDS011;11814;44.686;10.842;2023-05-10T04:38:23;9.63;;;7.70;;
23290;SDS011;11814;44.686;10.842;2023-05-10T04:40:50;11.20;;;8.18;;
23290;SDS011;11814;44.686;10.842;2023-05-10T04:43:15;12.77;;;7.30;;
23290;SDS011;11814;44.686;10.842;2023-05-10T04:45:41;9.63;;;7.43;;
23290;SDS011;11814;44.686;10.842;2023-05-10T04:48:07;10.98;;;7.75;;
23290;SDS011;11814;44.686;10.842;2023-05-10T04:50:33;13.45;;;8.05;;
23290;SDS011;11814;44.686;10.842;2023-05-10T04:52:58;9.75;;;7.72;;
23290;SDS011;11814;44.686;10.842;2023-05-10T04:55:24;8.63;;;7.25;;
23290;SDS011;11814;44.686;10.842;2023-05-10T04:57:51;9.38;;;7.00;;
23290;SDS011;11814;44.686;10.842;2023-05-10T05:00:17;7.93;;;6.82;;
23290;SDS011;11814;44.686;10.842;2023-05-10T05:02:43;8.20;;;6.45;;
23290;SDS011;11814;44.686;10.842;2023-05-10T05:05:12;9.95;;;6.75;;
23290;SDS011;11814;44.686;10.842;2023-05-10T05:07:38;8.50;;;6.38;;
23290;SDS011;11814;44.686;10.842;2023-05-10T05:10:07;6.25;;;5.65;;
23290;SDS011;11814;44.686;10.842;2023-05-10T05:12:34;8.90;;;6.85;;
23290;SDS011;11814;44.686;10.842;2023-05-10T05:15:00;6.85;;;6.05;;
23290;SDS011;11814;44.686;10.842;2023-05-10T05:17:26;7.85;;;6.50;;
23290;SDS011;11814;44.686;10.842;2023-05-10T05:19:52;10.30;;;6.80;;
23290;SDS011;11814;44.686;10.842;2023-05-10T05:22:17;10.07;;;6.53;;
23290;SDS011;11814;44.686;10.842;2023-05-10T05:24:44;8.85;;;6.90;;
23290;SDS011;11814;44.686;10.842;2023-05-10T05:27:10;8.35;;;6.93;;
23290;SDS011;11814;44.686;10.842;2023-05-10T05:29:36;9.23;;;6.45;;
23290;SDS011;11814;44.686;10.842;2023-05-10T05:32:02;8.68;;;6.72;;
23290;SDS011;11814;44.686;10.842;2023-05-10T05:34:28;12.15;;;7.32;;
23290;SDS011;11814;44.686;10.842;2023-05-10T05:36:53;10.23;;;6.22;;
23290;SDS011;11814;44.686;10.842;2023-05-10T05:39:19;9.15;;;7.13;;
23290;SDS011;11814;44.686;10.842;2023-05-10T05:41:45;8.50;;;6.95;;
23290;SDS011;11814;44.686;10.842;2023-05-10T05:44:11;12.18;;;7.80;;
23290;SDS011;11814;44.686;10.842;2023-05-10T05:46:37;9.63;;;6.90;;
23290;SDS011;11814;44.686;10.842;2023-05-10T05:49:03;12.85;;;6.90;;
23290;SDS011;11814;44.686;10.842;2023-05-10T05:51:28;9.35;;;6.68;;
23290;SDS011;11814;44.686;10.842;2023-05-10T05:53:54;10.02;;;7.30;;
23290;SDS011;11814;44.686;10.842;2023-05-10T05:56:20;9.98;;;7.20;;
23290;SDS011;11814;44.686;10.842;2023-05-10T05:58:49;7.65;;;6.53;;
23290;SDS011;11814;44.686;10.842;2023-05-10T06:01:15;9.88;;;6.40;;
23290;SDS011;11814;44.686;10.842;2023-05-10T06:03:41;6.47;;;5.68;;
23290;SDS011;11814;44.686;10.842;2023-05-10T06:06:07;6.70;;;6.00;;
23290;SDS011;11814;44.686;10.842;2023-05-10T06:08:33;8.25;;;5.72;;
23290;SDS011;11814;44.686;10.842;2023-05-10T06:10:59;8.23;;;5.93;;
23290;SDS011;11814;44.686;10.842;2023-05-10T06:13:25;10.93;;;5.93;;
23290;SDS011;11814;44.686;10.842;2023-05-10T06:15:57;10.30;;;5.70;;
23290;SDS011;11814;44.686;10.842;2023-05-10T06:18:26;6.95;;;5.97;;
23290;SDS011;11814;44.686;10.842;2023-05-10T06:20:51;7.20;;;6.07;;
23290;SDS011;11814;44.686;10.842;2023-05-10T06:23:17;8.20;;;5.85;;
23290;SDS011;11814;44.686;10.842;2023-05-10T06:25:43;9.18;;;6.53;;
23290;SDS011;11814;44.686;10.842;2023-05-10T06:28:09;6.93;;;6.13;;
23290;SDS011;11814;44.686;10.842;2023-05-10T06:30:35;8.02;;;6.43;;
23290;SDS011;11814;44.686;10.842;2023-05-10T06:33:01;7.25;;;6.05;;
23290;SDS011;11814;44.686;10.842;2023-05-10T06:35:28;9.70;;;7.00;;
23290;SDS011;11814;44.686;10.842;2023-05-10T06:37:54;8.65;;;6.68;;
23290;SDS011;11814;44.686;10.842;2023-05-10T06:40:19;8.57;;;6.45;;
23290;SDS011;11814;44.686;10.842;2023-05-10T06:42:46;10.25;;;7.40;;
23290;SDS011;11814;44.686;10.842;2023-05-10T06:45:13;9.75;;;7.25;;
23290;SDS011;11814;44.686;10.842;2023-05-10T06:47:39;9.15;;;7.18;;
23290;SDS011;11814;44.686;10.842;2023-05-10T06:50:06;8.43;;;7.28;;
23290;SDS011;11814;44.686;10.842;2023-05-10T06:52:33;8.65;;;6.88;;
23290;SDS011;11814;44.686;10.842;2023-05-10T06:54:58;9.75;;;8.27;;
23290;SDS011;11814;44.686;10.842;2023-05-10T06:57:25;12.48;;;8.05;;
23290;SDS011;11814;44.686;10.842;2023-05-10T06:59:51;12.05;;;9.15;;
23290;SDS011;11814;44.686;10.842;2023-05-10T07:02:17;9.98;;;8.65;;
23290;SDS011;11814;44.686;10.842;2023-05-10T07:04:43;11.63;;;8.90;;
23290;SDS011;11814;44.686;10.842;2023-05-10T07:07:08;13.40;;;8.82;;
23290;SDS011;11814;44.686;10.842;2023-05-10T07:09:34;13.25;;;9.73;;
23290;SDS011;11814;44.686;10.842;2023-05-10T07:12:00;12.57;;;9.23;;
23290;SDS011;11814;44.686;10.842;2023-05-10T07:14:27;10.68;;;9.45;;
23290;SDS011;11814;44.686;10.842;2023-05-10T07:16:53;10.57;;;9.48;;
23290;SDS011;11814;44.686;10.842;2023-05-10T07:19:18;11.82;;;10.30;;
23290;SDS011;11814;44.686;10.842;2023-05-10T07:21:44;10.70;;;8.95;;
23290;SDS011;11814;44.686;10.842;2023-05-10T07:24:10;10.98;;;9.88;;
23290;SDS011;11814;44.686;10.842;2023-05-10T07:26:36;12.00;;;8.80;;
23290;SDS011;11814;44.686;10.842;2023-05-10T07:29:02;12.05;;;9.40;;
23290;SDS011;11814;44.686;10.842;2023-05-10T07:31:27;12.80;;;10.18;;
23290;SDS011;11814;44.686;10.842;2023-05-10T07:33:53;12.43;;;10.10;;
23290;SDS011;11814;44.686;10.842;2023-05-10T07:36:19;11.60;;;8.93;;
23290;SDS011;11814;44.686;10.842;2023-05-10T07:38:45;11.98;;;9.60;;
23290;SDS011;11814;44.686;10.842;2023-05-10T07:41:11;10.30;;;9.25;;
23290;SDS011;11814;44.686;10.842;2023-05-10T07:43:37;12.68;;;9.32;;
23290;SDS011;11814;44.686;10.842;2023-05-10T07:46:03;16.33;;;9.38;;
23290;SDS011;11814;44.686;10.842;2023-05-10T07:48:29;15.15;;;10.35;;
23290;SDS011;11814;44.686;10.842;2023-05-10T07:50:54;12.00;;;10.70;;
23290;SDS011;11814;44.686;10.842;2023-05-10T07:53:20;13.82;;;10.73;;
23290;SDS011;11814;44.686;10.842;2023-05-10T07:55:53;12.98;;;11.30;;
23290;SDS011;11814;44.686;10.842;2023-05-10T07:58:22;13.63;;;10.90;;
23290;SDS011;11814;44.686;10.842;2023-05-10T08:00:49;15.98;;;10.68;;
23290;SDS011;11814;44.686;10.842;2023-05-10T08:03:14;12.75;;;10.27;;
23290;SDS011;11814;44.686;10.842;2023-05-10T08:05:40;10.93;;;9.20;;
23290;SDS011;11814;44.686;10.842;2023-05-10T08:08:06;9.70;;;8.63;;
23290;SDS011;11814;44.686;10.842;2023-05-10T08:10:32;12.05;;;9.50;;
23290;SDS011;11814;44.686;10.842;2023-05-10T08:12:58;12.48;;;8.85;;
23290;SDS011;11814;44.686;10.842;2023-05-10T08:15:24;9.43;;;7.70;;
23290;SDS011;11814;44.686;10.842;2023-05-10T08:17:53;9.45;;;8.10;;
23290;SDS011;11814;44.686;10.842;2023-05-10T08:20:19;11.73;;;8.20;;
23290;SDS011;11814;44.686;10.842;2023-05-10T08:22:45;11.57;;;9.10;;
23290;SDS011;11814;44.686;10.842;2023-05-10T08:25:11;9.40;;;8.18;;
23290;SDS011;11814;44.686;10.842;2023-05-10T08:27:37;9.48;;;8.02;;
23290;SDS011;11814;44.686;10.842;2023-05-10T08:30:03;9.00;;;7.43;;
23290;SDS011;11814;44.686;10.842;2023-05-10T08:32:29;10.18;;;7.80;;
23290;SDS011;11814;44.686;10.842;2023-05-10T08:34:55;12.73;;;8.98;;
23290;SDS011;11814;44.686;10.842;2023-05-10T08:37:22;11.55;;;8.73;;
23290;SDS011;11814;44.686;10.842;2023-05-10T08:39:49;10.45;;;8.13;;
23290;SDS011;11814;44.686;10.842;2023-05-10T08:42:16;9.88;;;8.18;;
23290;SDS011;11814;44.686;10.842;2023-05-10T08:44:45;9.45;;;7.40;;
23290;SDS011;11814;44.686;10.842;2023-05-10T08:47:15;10.65;;;7.65;;
23290;SDS011;11814;44.686;10.842;2023-05-10T08:49:43;11.40;;;7.82;;
23290;SDS011;11814;44.686;10.842;2023-05-10T08:52:12;11.23;;;7.75;;
23290;SDS011;11814;44.686;10.842;2023-05-10T08:54:40;11.57;;;9.05;;
23290;SDS011;11814;44.686;10.842;2023-05-10T08:57:06;10.77;;;8.70;;
23290;SDS011;11814;44.686;10.842;2023-05-10T08:59:32;10.52;;;8.27;;
23290;SDS011;11814;44.686;10.842;2023-05-10T09:01:58;12.13;;;8.82;;
23290;SDS011;11814;44.686;10.842;2023-05-10T09:04:25;11.13;;;8.43;;
23290;SDS011;11814;44.686;10.842;2023-05-10T09:06:51;10.15;;;8.32;;
23290;SDS011;11814;44.686;10.842;2023-05-10T09:09:17;9.82;;;8.07;;
23290;SDS011;11814;44.686;10.842;2023-05-10T09:11:44;10.82;;;8.02;;
23290;SDS011;11814;44.686;10.842;2023-05-10T09:14:11;11.15;;;8.07;;
23290;SDS011;11814;44.686;10.842;2023-05-10T09:16:38;11.93;;;8.50;;
23290;SDS011;11814;44.686;10.842;2023-05-10T09:19:04;10.55;;;7.55;;
23290;SDS011;11814;44.686;10.842;2023-05-10T09:21:31;12.57;;;8.20;;
23290;SDS011;11814;44.686;10.842;2023-05-10T09:24:02;10.75;;;7.85;;
23290;SDS011;11814;44.686;10.842;2023-05-10T09:26:28;10.52;;;7.95;;
23290;SDS011;11814;44.686;10.842;2023-05-10T09:28:55;11.35;;;8.38;;
23290;SDS011;11814;44.686;10.842;2023-05-10T09:31:22;12.30;;;7.60;;
23290;SDS011;11814;44.686;10.842;2023-05-10T09:33:50;11.77;;;8.02;;
23290;SDS011;11814;44.686;10.842;2023-05-10T09:36:16;10.10;;;8.07;;
23290;SDS011;11814;44.686;10.842;2023-05-10T09:38:46;11.95;;;8.30;;
23290;SDS011;11814;44.686;10.842;2023-05-10T09:41:22;8.93;;;7.30;;
23290;SDS011;11814;44.686;10.842;2023-05-10T09:43:49;10.02;;;7.28;;
23290;SDS011;11814;44.686;10.842;2023-05-10T09:46:15;9.85;;;8.07;;
23290;SDS011;11814;44.686;10.842;2023-05-10T09:48:47;11.48;;;8.13;;
23290;SDS011;11814;44.686;10.842;2023-05-10T09:51:25;12.63;;;7.30;;
23290;SDS011;11814;44.686;10.842;2023-05-10T09:56:38;10.27;;;7.60;;
23290;SDS011;11814;44.686;10.842;2023-05-10T09:59:06;9.98;;;8.05;;
23290;SDS011;11814;44.686;10.842;2023-05-10T10:01:34;11.05;;;7.93;;
23290;SDS011;11814;44.686;10.842;2023-05-10T10:04:04;9.32;;;8.15;;
23290;SDS011;11814;44.686;10.842;2023-05-10T10:06:34;10.43;;;7.95;;
23290;SDS011;11814;44.686;10.842;2023-05-10T10:09:05;11.73;;;8.07;;
23290;SDS011;11814;44.686;10.842;2023-05-10T10:11:31;10.23;;;8.43;;
23290;SDS011;11814;44.686;10.842;2023-05-10T10:13:58;10.65;;;8.05;;
23290;SDS011;11814;44.686;10.842;2023-05-10T10:16:25;10.75;;;7.55;;
23290;SDS011;11814;44.686;10.842;2023-05-10T10:18:55;13.52;;;7.78;;
23290;SDS011;11814;44.686;10.842;2023-05-10T10:21:22;11.07;;;7.57;;
23290;SDS011;11814;44.686;10.842;2023-05-10T10:23:48;8.98;;;7.80;;
23290;SDS011;11814;44.686;10.842;2023-05-10T10:26:15;8.10;;;6.90;;
23290;SDS011;11814;44.686;10.842;2023-05-10T10:29:01;11.25;;;7.32;;
23290;SDS011;11814;44.686;10.842;2023-05-10T10:34:06;10.00;;;7.90;;
23290;SDS011;11814;44.686;10.842;2023-05-10T10:36:47;7.78;;;6.97;;
23290;SDS011;11814;44.686;10.842;2023-05-10T10:39:13;9.00;;;7.45;;
23290;SDS011;11814;44.686;10.842;2023-05-10T10:41:50;9.00;;;6.63;;
23290;SDS011;11814;44.686;10.842;2023-05-10T10:49:27;9.55;;;7.28;;
23290;SDS011;11814;44.686;10.842;2023-05-10T10:52:14;8.27;;;6.78;;
23290;SDS011;11814;44.686;10.842;2023-05-10T11:02:56;7.40;;;6.10;;
23290;SDS011;11814;44.686;10.842;2023-05-10T11:05:46;9.60;;;6.32;;
23290;SDS011;11814;44.686;10.842;2023-05-10T11:08:17;7.82;;;6.57;;
23290;SDS011;11814;44.686;10.842;2023-05-10T11:13:42;7.65;;;6.25;;
23290;SDS011;11814;44.686;10.842;2023-05-10T11:16:13;11.07;;;7.32;;
23290;SDS011;11814;44.686;10.842;2023-05-10T11:19:08;7.60;;;6.80;;
23290;SDS011;11814;44.686;10.842;2023-05-10T11:21:45;8.45;;;7.00;;
23290;SDS011;11814;44.686;10.842;2023-05-10T11:24:13;9.52;;;7.63;;
23290;SDS011;11814;44.686;10.842;2023-05-10T11:26:44;8.18;;;6.60;;
23290;SDS011;11814;44.686;10.842;2023-05-10T11:29:11;8.25;;;7.35;;
23290;SDS011;11814;44.686;10.842;2023-05-10T11:31:44;9.35;;;7.47;;
23290;SDS011;11814;44.686;10.842;2023-05-10T11:34:11;10.45;;;8.70;;
23290;SDS011;11814;44.686;10.842;2023-05-10T11:36:50;9.15;;;8.15;;
23290;SDS011;11814;44.686;10.842;2023-05-10T11:39:18;8.98;;;8.02;;
23290;SDS011;11814;44.686;10.842;2023-05-10T11:41:46;9.90;;;7.82;;
23290;SDS011;11814;44.686;10.842;2023-05-10T11:44:13;10.20;;;8.20;;
23290;SDS011;11814;44.686;10.842;2023-05-10T11:46:39;8.38;;;7.45;;
23290;SDS011;11814;44.686;10.842;2023-05-10T11:49:06;11.95;;;7.82;;
23290;SDS011;11814;44.686;10.842;2023-05-10T11:51:33;8.27;;;7.47;;
23290;SDS011;11814;44.686;10.842;2023-05-10T11:54:05;8.70;;;7.30;;
23290;SDS011;11814;44.686;10.842;2023-05-10T11:56:35;8.63;;;7.80;;
23290;SDS011;11814;44.686;10.842;2023-05-10T11:59:05;11.25;;;8.10;;
23290;SDS011;11814;44.686;10.842;2023-05-10T12:01:31;9.88;;;8.18;;
23290;SDS011;11814;44.686;10.842;2023-05-10T12:03:57;8.65;;;7.53;;
23290;SDS011;11814;44.686;10.842;2023-05-10T12:06:31;9.70;;;7.82;;
23290;SDS011;11814;44.686;10.842;2023-05-10T12:09:05;9.73;;;7.43;;
23290;SDS011;11814;44.686;10.842;2023-05-10T12:11:35;10.80;;;7.50;;
23290;SDS011;11814;44.686;10.842;2023-05-10T12:14:04;9.07;;;7.65;;
23290;SDS011;11814;44.686;10.842;2023-05-10T12:16:30;8.60;;;6.85;;
23290;SDS011;11814;44.686;10.842;2023-05-10T12:18:57;8.38;;;7.55;;
23290;SDS011;11814;44.686;10.842;2023-05-10T12:21:24;10.65;;;7.38;;
23290;SDS011;11814;44.686;10.842;2023-05-10T12:23:51;8.32;;;7.40;;
23290;SDS011;11814;44.686;10.842;2023-05-10T12:26:22;9.48;;;7.90;;
23290;SDS011;11814;44.686;10.842;2023-05-10T12:28:48;8.60;;;7.18;;
23290;SDS011;11814;44.686;10.842;2023-05-10T12:31:14;8.77;;;7.88;;
23290;SDS011;11814;44.686;10.842;2023-05-10T12:33:40;8.85;;;8.02;;
23290;SDS011;11814;44.686;10.842;2023-05-10T12:36:11;9.02;;;8.07;;
23290;SDS011;11814;44.686;10.842;2023-05-10T12:38:39;9.48;;;8.48;;
23290;SDS011;11814;44.686;10.842;2023-05-10T12:41:13;9.65;;;8.30;;
23290;SDS011;11814;44.686;10.842;2023-05-10T12:43:40;13.05;;;8.35;;
23290;SDS011;11814;44.686;10.842;2023-05-10T12:48:39;11.40;;;8.98;;
23290;SDS011;11814;44.686;10.842;2023-05-10T12:51:06;10.18;;;8.90;;
23290;SDS011;11814;44.686;10.842;2023-05-10T12:53:38;8.30;;;7.43;;
23290;SDS011;11814;44.686;10.842;2023-05-10T12:56:04;9.77;;;8.55;;
23290;SDS011;11814;44.686;10.842;2023-05-10T12:58:30;11.73;;;8.50;;
23290;SDS011;11814;44.686;10.842;2023-05-10T13:00:57;8.50;;;7.65;;
23290;SDS011;11814;44.686;10.842;2023-05-10T13:03:23;8.48;;;7.60;;
23290;SDS011;11814;44.686;10.842;2023-05-10T13:05:49;8.02;;;7.22;;
23290;SDS011;11814;44.686;10.842;2023-05-10T13:08:15;8.60;;;7.70;;
23290;SDS011;11814;44.686;10.842;2023-05-10T13:10:41;8.73;;;7.65;;
23290;SDS011;11814;44.686;10.842;2023-05-10T13:13:06;7.40;;;6.70;;
23290;SDS011;11814;44.686;10.842;2023-05-10T13:15:33;6.95;;;6.25;;
23290;SDS011;11814;44.686;10.842;2023-05-10T13:17:59;8.43;;;7.53;;
23290;SDS011;11814;44.686;10.842;2023-05-10T13:20:25;7.57;;;6.80;;
23290;SDS011;11814;44.686;10.842;2023-05-10T13:22:52;8.40;;;6.80;;
23290;SDS011;11814;44.686;10.842;2023-05-10T13:25:17;7.70;;;6.60;;
23290;SDS011;11814;44.686;10.842;2023-05-10T13:27:44;9.27;;;7.30;;
23290;SDS011;11814;44.686;10.842;2023-05-10T13:30:09;7.55;;;6.75;;
23290;SDS011;11814;44.686;10.842;2023-05-10T13:32:36;10.27;;;7.57;;
23290;SDS011;11814;44.686;10.842;2023-05-10T13:35:02;8.00;;;7.20;;
23290;SDS011;11814;44.686;10.842;2023-05-10T13:37:29;8.05;;;7.20;;
23290;SDS011;11814;44.686;10.842;2023-05-10T13:39:55;7.78;;;6.97;;
23290;SDS011;11814;44.686;10.842;2023-05-10T13:42:22;7.80;;;7.03;;
23290;SDS011;11814;44.686;10.842;2023-05-10T13:44:48;10.05;;;7.30;;
23290;SDS011;11814;44.686;10.842;2023-05-10T13:47:15;10.20;;;7.97;;
23290;SDS011;11814;44.686;10.842;2023-05-10T13:49:40;9.52;;;8.52;;
23290;SDS011;11814;44.686;10.842;2023-05-10T13:52:06;9.05;;;8.13;;
23290;SDS011;11814;44.686;10.842;2023-05-10T13:54:36;9.38;;;8.20;;
23290;SDS011;11814;44.686;10.842;2023-05-10T13:57:03;8.60;;;7.78;;
23290;SDS011;11814;44.686;10.842;2023-05-10T13:59:29;8.65;;;7.85;;
23290;SDS011;11814;44.686;10.842;2023-05-10T14:01:58;8.45;;;7.65;;
23290;SDS011;11814;44.686;10.842;2023-05-10T14:04:27;10.43;;;8.02;;
23290;SDS011;11814;44.686;10.842;2023-05-10T14:06:53;9.30;;;8.35;;
23290;SDS011;11814;44.686;10.842;2023-05-10T14:09:19;9.55;;;8.55;;
23290;SDS011;11814;44.686;10.842;2023-05-10T14:11:45;9.80;;;8.75;;
23290;SDS011;11814;44.686;10.842;2023-05-10T14:14:11;9.25;;;8.35;;
23290;SDS011;11814;44.686;10.842;2023-05-10T14:16:37;9.50;;;7.85;;
23290;SDS011;11814;44.686;10.842;2023-05-10T14:19:03;9.45;;;8.55;;
23290;SDS011;11814;44.686;10.842;2023-05-10T14:21:29;11.70;;;8.98;;
23290;SDS011;11814;44.686;10.842;2023-05-10T14:23:55;12.75;;;8.60;;
23290;SDS011;11814;44.686;10.842;2023-05-10T14:26:22;8.90;;;7.97;;
23290;SDS011;11814;44.686;10.842;2023-05-10T14:28:47;8.57;;;7.53;;
23290;SDS011;11814;44.686;10.842;2023-05-10T14:31:13;8.88;;;7.90;;
23290;SDS011;11814;44.686;10.842;2023-05-10T14:33:41;8.95;;;8.05;;
23290;SDS011;11814;44.686;10.842;2023-05-10T14:36:07;10.10;;;7.95;;
23290;SDS011;11814;44.686;10.842;2023-05-10T14:38:33;10.32;;;9.18;;
23290;SDS011;11814;44.686;10.842;2023-05-10T14:40:59;9.60;;;8.60;;
23290;SDS011;11814;44.686;10.842;2023-05-10T14:43:25;9.57;;;8.68;;
23290;SDS011;11814;44.686;10.842;2023-05-10T14:45:52;9.48;;;8.35;;
23290;SDS011;11814;44.686;10.842;2023-05-10T14:48:18;10.45;;;9.40;;
23290;SDS011;11814;44.686;10.842;2023-05-10T14:50:44;9.98;;;9.02;;
23290;SDS011;11814;44.686;10.842;2023-05-10T14:53:11;9.82;;;8.73;;
23290;SDS011;11814;44.686;10.842;2023-05-10T14:55:36;9.80;;;8.80;;
23290;SDS011;11814;44.686;10.842;2023-05-10T14:58:03;10.30;;;8.70;;
23290;SDS011;11814;44.686;10.842;2023-05-10T15:00:29;10.30;;;9.20;;
23290;SDS011;11814;44.686;10.842;2023-05-10T15:02:55;9.88;;;8.90;;
23290;SDS011;11814;44.686;10.842;2023-05-10T15:05:21;9.60;;;8.55;;
23290;SDS011;11814;44.686;10.842;2023-05-10T15:07:47;10.75;;;9.50;;
23290;SDS011;11814;44.686;10.842;2023-05-10T15:10:13;10.95;;;9.80;;